Imlay City, Michigan
Current Conditions -  °F | °C
As of 7:13 AM on Thursday 29 Jan 2015 (Local Time) from KD95 Reporting Station
Overcast Overcast  
Wind Chill: 19°   Ceiling: 4500
Heat Index: 26°   Visibility: 10mi
Dew Point: 19°   Wind: 7mph
Humidity: 74%   Direction: 160°SSE
Pressure: 29.82"   Gusts: NA
Location:  43.02°N, 83.08°W
Report Text: KD95 291213Z AUTO 16006KT 10SM OVC045 M03/M07 A2982 RMK AO2 T10311072
Loading
Personal Weather Stations






























Interactive Weather Map New forecast layout! Learn more

10-Day Weather Forecast

Advertisements
Track Severe Weather on mobile